createdAt,value
2022-09-28T00:00:44.027Z,952.85
2022-09-28T00:01:44.356Z,952.88
2022-09-28T00:02:44.601Z,952.85
2022-09-28T00:03:44.774Z,952.76
2022-09-28T00:04:45.026Z,952.77
2022-09-28T00:05:47.100Z,952.79
2022-09-28T00:06:45.557Z,952.79
2022-09-28T00:07:45.798Z,952.70
2022-09-28T00:08:46.028Z,952.66
2022-09-28T00:09:46.297Z,952.73
2022-09-28T00:10:46.542Z,952.73
2022-09-28T00:11:46.777Z,952.70
2022-09-28T00:12:47.011Z,952.62
2022-09-28T00:13:47.300Z,952.65
2022-09-28T00:14:47.512Z,952.54
2022-09-28T00:15:47.856Z,952.52
2022-09-28T00:16:48.118Z,952.58
2022-09-28T00:17:48.383Z,952.54
2022-09-28T00:18:48.677Z,952.52
2022-09-28T00:19:48.914Z,952.50
2022-09-28T00:20:49.178Z,952.43
2022-09-28T00:21:49.445Z,952.41
2022-09-28T00:22:49.683Z,952.39
2022-09-28T00:23:49.931Z,952.33
2022-09-28T00:24:50.183Z,952.38
2022-09-28T00:25:50.436Z,952.33
2022-09-28T00:26:50.691Z,952.29
2022-09-28T00:27:50.925Z,952.27
2022-09-28T00:28:51.173Z,952.30
2022-09-28T00:29:51.421Z,952.24
2022-09-28T00:30:51.654Z,952.23
2022-09-28T00:31:51.947Z,952.22
2022-09-28T00:32:52.241Z,952.18
2022-09-28T00:33:52.479Z,952.14
2022-09-28T00:34:52.712Z,952.32
2022-09-28T00:35:52.940Z,952.19
2022-09-28T00:36:53.174Z,952.23
2022-09-28T00:37:53.517Z,952.20
2022-09-28T00:38:53.748Z,952.18
2022-09-28T00:39:53.993Z,952.22
2022-09-28T00:40:54.286Z,952.13
2022-09-28T00:41:54.543Z,952.09
2022-09-28T00:42:54.801Z,952.07
2022-09-28T00:43:55.079Z,952.09
2022-09-28T00:44:55.312Z,952.01
2022-09-28T00:45:59.411Z,952.04
2022-09-28T00:46:55.856Z,952.01
2022-09-28T00:47:56.100Z,951.99
2022-09-28T00:48:56.353Z,951.96
2022-09-28T00:49:56.590Z,951.95
2022-09-28T00:50:56.826Z,951.91
2022-09-28T00:51:57.177Z,951.91
2022-09-28T02:55:47.760Z,950.08
2022-09-28T02:56:48.041Z,950.07
2022-09-28T02:57:48.382Z,950.13
2022-09-28T02:58:48.652Z,950.10
2022-09-28T02:59:48.908Z,950.05
2022-09-28T03:00:49.256Z,950.04
2022-09-28T03:01:49.445Z,950.07
2022-09-28T03:02:49.738Z,950.06
2022-09-28T03:03:49.991Z,950.13
2022-09-28T03:04:50.253Z,950.06
2022-09-28T03:05:50.494Z,950.07
2022-09-28T03:06:50.763Z,950.07
2022-09-28T03:07:51.096Z,949.98
2022-09-28T03:08:51.424Z,949.98
2022-09-28T03:09:51.708Z,949.91
2022-09-28T03:10:51.956Z,949.86
2022-09-28T03:11:52.209Z,949.86
2022-09-28T03:12:52.478Z,949.76
2022-09-28T03:13:52.736Z,949.76
2022-09-28T03:14:52.989Z,949.71
2022-09-28T03:15:53.257Z,949.70
2022-09-28T03:16:53.507Z,949.65
2022-09-28T03:17:53.758Z,949.60
2022-09-28T03:18:53.991Z,949.62
2022-09-28T03:19:54.215Z,949.60
2022-09-28T03:20:54.593Z,949.58
2022-09-28T03:21:54.831Z,949.56
2022-09-28T03:23:22.837Z,949.53
2022-09-28T03:23:56.502Z,949.55
2022-09-28T03:24:55.783Z,949.50
2022-09-28T03:25:56.052Z,949.52
2022-09-28T03:26:56.284Z,949.51
2022-09-28T03:27:56.527Z,949.52
2022-09-28T03:28:56.781Z,949.56
2022-09-28T03:29:57.019Z,949.52
2022-09-28T03:30:57.310Z,949.54
2022-09-28T03:31:57.620Z,949.58
2022-09-28T03:32:57.789Z,949.56
2022-09-28T03:33:58.031Z,949.53
2022-09-28T03:34:58.265Z,949.62
2022-09-28T03:35:58.514Z,949.64
2022-09-28T03:36:58.726Z,949.60
2022-09-28T03:37:59.055Z,949.60
2022-09-28T03:38:59.288Z,949.59
2022-09-28T03:39:59.549Z,949.58
2022-09-28T03:40:59.964Z,949.61
2022-09-28T03:42:00.063Z,949.61
2022-09-28T03:43:00.300Z,949.66
2022-09-28T03:44:00.563Z,949.65
2022-09-28T03:45:00.796Z,949.63
2022-09-28T03:46:01.066Z,949.71
2022-09-28T03:47:01.354Z,949.69
2022-09-28T03:48:01.606Z,949.68
2022-09-28T03:49:01.874Z,949.63
2022-09-28T03:50:02.117Z,949.61
2022-09-28T03:51:02.392Z,949.63
2022-09-28T03:52:02.616Z,949.58
2022-09-28T03:53:02.848Z,949.56
2022-09-28T03:54:03.201Z,949.52
2022-09-28T03:55:03.452Z,949.54
2022-09-28T03:56:03.728Z,949.57
2022-09-28T03:57:03.971Z,949.55
2022-09-28T03:58:04.204Z,949.50
2022-09-28T03:59:04.432Z,949.50
2022-09-28T04:00:04.670Z,949.49
2022-09-28T04:01:05.042Z,949.45
2022-09-28T04:02:05.240Z,949.39
2022-09-28T04:03:05.547Z,949.39
2022-09-28T04:04:05.785Z,949.34
2022-09-28T04:05:06.135Z,949.34
2022-09-28T04:06:06.370Z,949.29
2022-09-28T04:07:06.719Z,949.26
2022-09-28T04:08:06.993Z,949.20
2022-09-28T04:09:07.236Z,949.20
2022-09-28T04:10:07.485Z,949.21
2022-09-28T04:11:07.738Z,949.21
2022-09-28T04:12:07.992Z,949.06
2022-09-28T04:13:08.264Z,949.01
2022-09-28T04:14:08.517Z,949.00
2022-09-28T04:15:10.615Z,949.01
2022-09-28T04:16:11.010Z,948.95
2022-09-28T04:17:09.402Z,948.93
2022-09-28T04:18:09.681Z,948.93
2022-09-28T04:19:09.945Z,948.91
2022-09-28T04:20:10.263Z,948.90
2022-09-28T04:21:10.516Z,948.88
2022-09-28T04:22:10.779Z,948.91
2022-09-28T04:23:12.817Z,948.94
2022-09-28T04:24:11.276Z,948.95
2022-09-28T04:25:11.530Z,948.94
2022-09-28T04:26:11.788Z,948.95
2022-09-28T04:27:12.051Z,948.89
2022-09-28T04:28:12.324Z,948.91
2022-09-28T04:29:12.685Z,948.88
2022-09-28T04:30:14.746Z,948.99
2022-09-28T04:31:13.277Z,949.02
2022-09-28T04:32:13.442Z,948.99
2022-09-28T04:33:13.716Z,949.04
2022-09-28T04:34:13.969Z,949.11
2022-09-28T04:35:16.071Z,949.11
2022-09-28T04:36:14.541Z,949.21
2022-09-28T04:37:14.840Z,949.15
2022-09-28T04:38:15.088Z,949.16
2022-09-28T04:39:15.385Z,949.11
2022-09-28T04:40:15.701Z,949.16
2022-09-28T04:41:15.965Z,949.13
2022-09-28T04:42:16.213Z,949.06
2022-09-28T04:43:16.485Z,949.10
2022-09-28T04:44:16.738Z,949.14
2022-09-28T04:45:16.996Z,949.12
2022-09-28T04:46:17.365Z,949.08
2022-09-28T04:47:17.558Z,949.10
2022-09-28T04:48:17.923Z,949.07
2022-09-28T04:49:18.350Z,949.03
2022-09-28T04:50:22.324Z,949.02
2022-09-28T04:51:18.742Z,949.05
2022-09-28T04:52:19.015Z,948.97
2022-09-28T04:53:19.304Z,948.92
2022-09-28T04:54:19.568Z,948.87
2022-09-28T04:55:19.826Z,948.86
2022-09-28T04:56:20.081Z,948.86
2022-09-28T04:57:20.337Z,948.90
2022-09-28T04:58:20.615Z,948.82
2022-09-28T04:59:20.874Z,948.79
2022-09-28T05:00:21.127Z,948.82
2022-09-28T05:01:21.540Z,948.83
2022-09-28T05:02:21.713Z,948.81
2022-09-28T05:03:21.877Z,948.76
2022-09-28T05:04:25.798Z,948.83
2022-09-28T05:05:22.434Z,948.87
2022-09-28T05:06:22.781Z,948.90
2022-09-28T05:07:22.935Z,948.93
2022-09-28T05:08:23.209Z,948.92
2022-09-28T05:09:23.465Z,948.95
2022-09-28T05:10:23.750Z,948.95
2022-09-28T05:11:24.056Z,948.93
2022-09-28T05:12:24.327Z,948.92
2022-09-28T05:13:26.426Z,948.99
2022-09-28T05:14:24.883Z,948.97
2022-09-28T05:15:25.176Z,948.98
2022-09-28T05:16:25.453Z,948.93
2022-09-28T05:17:25.757Z,949.00
2022-09-28T05:18:26.023Z,948.94
2022-09-28T05:19:26.300Z,949.03
2022-09-28T05:20:26.605Z,949.04
2022-09-28T05:21:26.903Z,949.08
2022-09-28T05:22:29.010Z,949.05
2022-09-28T05:23:27.506Z,949.05
2022-09-28T05:24:27.809Z,949.01
2022-09-28T05:25:28.092Z,949.03
2022-09-28T05:26:28.420Z,949.03
2022-09-28T05:27:28.709Z,948.94
2022-09-28T05:28:29.003Z,948.93
2022-09-28T05:29:32.236Z,949.06
2022-09-28T05:30:29.650Z,949.02
2022-09-28T05:31:29.999Z,948.99
2022-09-28T05:32:30.191Z,949.08
2022-09-28T05:33:30.510Z,949.02
2022-09-28T05:34:30.844Z,949.03
2022-09-28T05:35:31.142Z,948.98
2022-09-28T05:36:31.448Z,949.05
2022-09-28T05:37:31.750Z,948.95
2022-09-28T05:38:32.052Z,948.93
2022-09-28T05:39:32.398Z,948.91
2022-09-28T05:40:32.775Z,948.89
2022-09-28T05:41:32.969Z,948.90
2022-09-28T05:42:33.285Z,948.99
2022-09-28T05:43:33.619Z,948.94
2022-09-28T05:44:33.932Z,948.91
2022-09-28T05:45:34.310Z,948.97
2022-09-28T05:46:34.521Z,948.93
2022-09-28T05:47:34.831Z,948.94
2022-09-28T05:48:35.171Z,948.92
2022-09-28T05:49:35.485Z,948.93
2022-09-28T05:50:35.767Z,948.93
2022-09-28T05:51:36.065Z,948.89
2022-09-28T05:52:36.369Z,948.92
2022-09-28T05:53:36.713Z,948.87
2022-09-28T05:54:37.052Z,948.87
2022-09-28T05:55:37.360Z,948.80
2022-09-28T05:56:37.660Z,948.84
2022-09-28T05:57:37.993Z,948.83
2022-09-28T05:58:38.337Z,948.84
2022-09-28T05:59:38.630Z,948.89
2022-09-28T06:00:38.939Z,948.90
2022-09-28T06:01:39.308Z,948.87
2022-09-28T06:02:39.598Z,948.90
2022-09-28T06:03:39.790Z,948.89
2022-09-28T06:04:40.093Z,948.92
2022-09-28T06:05:40.391Z,948.88
2022-09-28T06:06:40.690Z,948.94
2022-09-28T06:07:41.019Z,948.94
2022-09-28T06:08:41.317Z,948.95
2022-09-28T06:09:41.652Z,948.92
2022-09-28T06:10:41.965Z,948.91
2022-09-28T06:11:42.310Z,948.90
2022-09-28T06:12:42.588Z,948.91
2022-09-28T06:13:42.899Z,948.86
2022-09-28T06:14:43.190Z,948.86
2022-09-28T06:15:43.499Z,948.83
2022-09-28T06:16:44.132Z,948.86
2022-09-28T06:17:44.076Z,948.87
2022-09-28T06:18:44.400Z,948.89
2022-09-28T06:19:44.698Z,948.83
2022-09-28T06:20:44.992Z,948.88
2022-09-28T06:21:45.253Z,948.82
2022-09-28T06:22:45.548Z,948.97
2022-09-28T06:23:49.180Z,948.94
2022-09-28T06:24:46.166Z,948.88
2022-09-28T06:25:46.449Z,948.92
2022-09-28T06:26:46.748Z,948.91
2022-09-28T06:27:47.051Z,948.96
2022-09-28T06:28:47.374Z,948.96
2022-09-28T06:29:47.678Z,948.87
2022-09-28T06:30:51.818Z,948.94
2022-09-28T06:31:48.215Z,948.98
2022-09-28T06:32:48.514Z,948.90
2022-09-28T06:33:48.826Z,948.95
2022-09-28T06:34:52.757Z,948.98
2022-09-28T06:35:50.402Z,949.02
2022-09-28T06:36:49.758Z,949.01
2022-09-28T06:37:50.057Z,949.00
2022-09-28T06:38:50.375Z,948.99
2022-09-28T06:39:50.664Z,948.99
2022-09-28T06:40:51.019Z,948.97
2022-09-28T06:41:51.246Z,949.01
2022-09-28T06:42:51.544Z,948.95
2022-09-28T06:43:51.849Z,948.93
2022-09-28T06:44:52.150Z,948.94
2022-09-28T06:45:52.470Z,948.90
2022-09-28T06:46:52.800Z,948.94
2022-09-28T06:47:53.107Z,948.93
2022-09-28T06:48:53.407Z,948.94
2022-09-28T06:49:53.719Z,948.95
2022-09-28T06:50:54.054Z,948.98
2022-09-28T06:51:54.357Z,949.04
2022-09-28T06:52:54.737Z,949.03
2022-09-28T06:53:54.914Z,949.09
2022-09-28T06:54:55.223Z,949.13
2022-09-28T06:55:55.562Z,949.17
2022-09-28T06:56:55.885Z,949.23
2022-09-28T06:57:56.191Z,949.23
2022-09-28T06:58:56.508Z,949.22
2022-09-28T06:59:56.818Z,949.20
2022-09-28T07:00:57.123Z,949.21
2022-09-28T07:01:57.404Z,949.25
2022-09-28T07:02:57.592Z,949.17
2022-09-28T07:03:57.929Z,949.25
2022-09-28T07:04:58.133Z,949.30
2022-09-28T07:05:58.472Z,949.29
2022-09-28T07:06:58.770Z,949.32
2022-09-28T07:07:59.124Z,949.32
2022-09-28T07:09:15.761Z,949.27
2022-09-28T07:10:00.724Z,949.27
2022-09-28T07:11:00.015Z,949.31
2022-09-28T07:12:00.328Z,949.29
2022-09-28T07:13:00.643Z,949.28
2022-09-28T07:14:00.955Z,949.32
2022-09-28T07:15:01.270Z,949.34
2022-09-28T07:16:01.571Z,949.39
2022-09-28T07:17:12.941Z,949.37
2022-09-28T07:18:04.070Z,949.38
2022-09-28T07:19:02.474Z,949.37
2022-09-28T07:20:14.200Z,949.38
2022-09-28T07:21:04.077Z,949.37
2022-09-28T07:22:05.426Z,949.37
2022-09-28T07:23:14.906Z,949.33
2022-09-28T07:24:04.904Z,949.38
2022-09-28T07:25:04.175Z,949.42
2022-09-28T07:26:07.139Z,949.39
2022-09-28T07:27:04.766Z,949.39
2022-09-28T07:28:05.071Z,949.40
2022-09-28T07:29:05.414Z,949.42
2022-09-28T07:30:05.728Z,949.39
2022-09-28T07:31:09.986Z,949.43
2022-09-28T07:32:06.265Z,949.45
2022-09-28T07:33:06.563Z,949.42
2022-09-28T07:34:06.874Z,949.44
2022-09-28T07:35:07.199Z,949.47
2022-09-28T07:36:07.538Z,949.53
2022-09-28T07:37:07.827Z,949.59
2022-09-28T07:38:08.119Z,949.53
2022-09-28T07:39:08.430Z,949.55
2022-09-28T07:40:08.764Z,949.61
2022-09-28T07:41:08.968Z,949.61
2022-09-28T07:42:09.343Z,949.63
2022-09-28T07:43:09.533Z,949.59
2022-09-28T07:44:09.821Z,949.58
2022-09-28T07:45:10.124Z,949.63
2022-09-28T07:46:10.466Z,949.66
2022-09-28T07:47:10.730Z,949.66
2022-09-28T07:49:12.422Z,949.62
2022-09-28T07:50:11.516Z,949.67
2022-09-28T07:51:11.755Z,949.67
2022-09-28T07:52:12.054Z,949.68
2022-09-28T07:53:12.367Z,949.69
2022-09-28T07:54:12.671Z,949.71
2022-09-28T07:55:13.009Z,949.69
2022-09-28T07:56:13.326Z,949.75
2022-09-28T07:57:13.632Z,949.75
2022-09-28T07:58:13.953Z,949.78
2022-09-28T07:59:14.350Z,949.78
2022-09-28T08:00:14.589Z,949.71
2022-09-28T08:01:15.026Z,949.75
2022-09-28T08:02:15.216Z,949.77
2022-09-28T08:03:15.469Z,949.76
2022-09-28T08:04:15.824Z,949.76
2022-09-28T08:05:15.991Z,949.79
2022-09-28T08:06:16.316Z,949.75
2022-09-28T08:07:19.476Z,949.78
2022-09-28T08:08:17.919Z,949.81
2022-09-28T08:09:17.254Z,949.82
2022-09-28T08:10:17.523Z,949.82
2022-09-28T08:11:17.825Z,949.84
2022-09-28T08:12:22.006Z,949.81
2022-09-28T08:13:18.353Z,949.86
2022-09-28T08:14:18.769Z,949.87
2022-09-28T08:15:18.861Z,949.90
2022-09-28T08:16:19.381Z,949.92
2022-09-28T08:17:19.416Z,949.86
2022-09-28T08:18:19.716Z,949.87
2022-09-28T08:19:20.045Z,949.85
2022-09-28T08:20:20.358Z,949.82
2022-09-28T08:21:20.668Z,949.88
2022-09-28T08:22:20.972Z,949.79
2022-09-28T08:23:21.319Z,949.81
2022-09-28T08:24:21.648Z,949.79
2022-09-28T08:25:25.717Z,949.83
2022-09-28T08:26:26.811Z,949.81
2022-09-28T08:27:22.428Z,949.80
2022-09-28T08:28:22.754Z,949.78
2022-09-28T08:29:22.954Z,949.71
2022-09-28T08:30:23.470Z,949.73
2022-09-28T08:31:23.667Z,949.75
2022-09-28T08:32:23.860Z,949.69
2022-09-28T08:33:24.164Z,949.71
2022-09-28T08:34:24.472Z,949.75
2022-09-28T08:35:24.787Z,949.74
2022-09-28T08:36:25.148Z,949.84
2022-09-28T08:37:25.325Z,949.77
2022-09-28T08:38:25.647Z,949.79
2022-09-28T08:39:25.949Z,949.84
2022-09-28T08:40:26.328Z,949.86
2022-09-28T08:41:26.605Z,949.83
2022-09-28T08:42:26.801Z,949.83
2022-09-28T08:43:27.130Z,949.86
2022-09-28T08:44:27.470Z,949.81
2022-09-28T08:45:27.782Z,949.89
2022-09-28T08:46:28.165Z,949.95
2022-09-28T08:47:28.360Z,949.93
2022-09-28T08:48:28.703Z,949.96
2022-09-28T08:49:29.016Z,950.01
2022-09-28T08:50:29.366Z,950.00
2022-09-28T08:51:29.543Z,950.08
2022-09-28T08:52:29.887Z,950.08
2022-09-28T08:53:30.190Z,950.11
2022-09-28T08:54:30.499Z,950.14
2022-09-28T08:55:30.823Z,950.17
2022-09-28T08:56:31.131Z,950.21
2022-09-28T08:57:31.471Z,950.21
2022-09-28T08:58:31.773Z,950.20
2022-09-28T08:59:32.088Z,950.27
2022-09-28T09:00:32.388Z,950.23
2022-09-28T09:01:32.758Z,950.32
2022-09-28T09:02:33.074Z,950.22
2022-09-28T09:03:33.297Z,950.25
2022-09-28T09:04:33.613Z,950.29
2022-09-28T09:05:33.949Z,950.31
2022-09-28T09:06:34.268Z,950.35
2022-09-28T09:07:34.583Z,950.31
2022-09-28T09:08:34.910Z,950.36
2022-09-28T09:09:35.239Z,950.43
2022-09-28T09:10:35.544Z,950.33
2022-09-28T09:11:35.847Z,950.37
2022-09-28T09:12:36.150Z,950.35
2022-09-28T09:13:36.469Z,950.35
2022-09-28T09:14:36.807Z,950.36
2022-09-28T09:15:37.131Z,950.37
2022-09-28T09:16:37.468Z,950.35
2022-09-28T09:17:37.689Z,950.40
2022-09-28T09:18:37.991Z,950.35
2022-09-28T09:19:38.285Z,950.38
2022-09-28T09:20:38.588Z,950.35
2022-09-28T09:21:38.888Z,950.41
2022-09-28T09:22:39.201Z,950.36
2022-09-28T09:23:40.494Z,950.31
2022-09-28T09:24:39.743Z,950.35
2022-09-28T09:25:40.054Z,950.37
2022-09-28T09:26:40.365Z,950.39
2022-09-28T09:27:40.709Z,950.37
2022-09-28T09:28:40.901Z,950.42
2022-09-28T09:29:41.191Z,950.35
2022-09-28T09:30:41.557Z,950.37
2022-09-28T09:31:41.769Z,950.36
2022-09-28T09:32:42.115Z,950.34
2022-09-28T09:33:42.344Z,950.33
2022-09-28T09:34:42.660Z,950.30
2022-09-28T09:35:42.956Z,950.29
2022-09-28T09:36:43.271Z,950.28
2022-09-28T09:37:43.595Z,950.29
2022-09-28T09:38:43.932Z,950.30
2022-09-28T09:39:44.282Z,950.28
2022-09-28T09:40:44.697Z,950.35
2022-09-28T09:41:44.823Z,950.35
2022-09-28T09:42:45.167Z,950.35
2022-09-28T09:43:45.485Z,950.34
2022-09-28T09:44:49.685Z,950.40
2022-09-28T09:45:46.103Z,950.37
2022-09-28T09:46:46.347Z,950.37
2022-09-28T09:47:46.548Z,950.36
2022-09-28T09:48:46.857Z,950.29
2022-09-28T09:49:47.162Z,950.37
2022-09-28T09:50:48.472Z,950.37
2022-09-28T09:51:47.724Z,950.38
2022-09-28T09:52:48.041Z,950.43
2022-09-28T09:53:48.358Z,950.39
2022-09-28T09:54:48.676Z,950.32
2022-09-28T09:55:49.039Z,950.37
2022-09-28T09:56:49.241Z,950.31
2022-09-28T09:57:49.883Z,950.33
2022-09-28T09:58:49.843Z,950.34
2022-09-28T09:59:50.137Z,950.38
2022-09-28T10:00:50.471Z,950.48
2022-09-28T10:01:50.765Z,950.52
2022-09-28T10:02:51.158Z,950.49
2022-09-28T10:03:51.346Z,950.50
2022-09-28T10:04:51.650Z,950.50
2022-09-28T10:05:52.003Z,950.53
2022-09-28T10:06:52.196Z,950.61
2022-09-28T10:07:52.526Z,950.57
2022-09-28T10:08:52.834Z,950.61
2022-09-28T10:09:53.142Z,950.62
2022-09-28T10:10:53.436Z,950.55
2022-09-28T10:11:53.775Z,950.59
2022-09-28T10:12:54.108Z,950.59
2022-09-28T10:13:54.301Z,950.64
2022-09-28T10:14:54.625Z,950.66
2022-09-28T10:15:54.928Z,950.64
2022-09-28T10:16:55.274Z,950.62
2022-09-28T10:17:55.623Z,950.66
2022-09-28T10:18:55.937Z,950.62
2022-09-28T10:19:56.233Z,950.60
2022-09-28T10:20:56.549Z,950.60
2022-09-28T10:21:56.897Z,950.63
2022-09-28T10:22:57.104Z,950.55
2022-09-28T10:23:57.447Z,950.56
2022-09-28T10:24:57.680Z,950.55
2022-09-28T10:25:57.980Z,950.54
2022-09-28T10:26:58.284Z,950.57
2022-09-28T10:27:58.612Z,950.60
2022-09-28T10:28:58.971Z,950.64
2022-09-28T10:29:59.168Z,950.66
2022-09-28T10:30:59.574Z,950.71
2022-09-28T10:31:59.837Z,950.76
2022-09-28T10:33:00.025Z,950.78
2022-09-28T10:34:00.358Z,950.80
2022-09-28T10:35:00.647Z,950.84
2022-09-28T10:36:00.960Z,950.86
2022-09-28T10:37:01.188Z,950.88
2022-09-28T10:38:01.508Z,950.84
2022-09-28T10:39:01.806Z,950.78
2022-09-28T10:40:02.129Z,950.84
2022-09-28T10:41:02.414Z,950.81
2022-09-28T10:42:02.686Z,950.79
2022-09-28T10:43:03.030Z,950.76
2022-09-28T10:44:03.217Z,950.70
2022-09-28T10:45:03.496Z,950.70
2022-09-28T10:46:03.930Z,950.71
2022-09-28T10:47:06.511Z,950.74
2022-09-28T10:48:04.315Z,950.74
2022-09-28T10:49:04.614Z,950.73
2022-09-28T10:50:04.923Z,950.76
2022-09-28T10:51:05.253Z,950.74
2022-09-28T10:52:05.570Z,950.80
2022-09-28T10:53:05.910Z,950.81
2022-09-28T10:54:06.208Z,950.81
2022-09-28T10:55:06.524Z,950.86
2022-09-28T10:56:06.850Z,950.86
2022-09-28T10:57:11.450Z,950.86
2022-09-28T10:58:08.451Z,950.84
2022-09-28T10:59:07.676Z,950.85
2022-09-28T11:00:07.971Z,950.85
2022-09-28T11:01:08.390Z,950.88
2022-09-28T11:02:08.678Z,950.90
2022-09-28T11:03:08.911Z,950.89
2022-09-28T11:04:09.209Z,950.90
2022-09-28T11:05:14.904Z,950.90
2022-09-28T11:06:09.861Z,950.87
2022-09-28T11:07:10.644Z,950.91
2022-09-28T11:08:10.390Z,950.92
2022-09-28T11:09:10.751Z,950.90
2022-09-28T11:10:10.979Z,950.88
2022-09-28T11:11:11.288Z,950.89
2022-09-28T11:12:11.598Z,950.91
2022-09-28T11:13:11.909Z,950.90
2022-09-28T11:14:12.225Z,950.89
2022-09-28T11:15:12.555Z,950.88
2022-09-28T11:16:12.931Z,950.89
2022-09-28T11:17:13.161Z,950.88
2022-09-28T11:18:13.483Z,950.85
2022-09-28T11:19:13.893Z,950.87
2022-09-28T11:20:14.123Z,950.89
2022-09-28T11:21:14.420Z,950.89
2022-09-28T11:22:15.221Z,950.87
2022-09-28T11:23:15.070Z,950.89
2022-09-28T11:24:18.850Z,950.88
2022-09-28T11:25:15.609Z,950.91
2022-09-28T11:26:18.600Z,950.96
2022-09-28T11:27:16.695Z,950.93
2022-09-28T11:28:16.424Z,950.93
2022-09-28T11:29:16.822Z,950.92
2022-09-28T11:30:17.078Z,950.91
2022-09-28T11:31:17.458Z,950.90
2022-09-28T11:32:17.756Z,950.92
2022-09-28T11:33:18.054Z,950.93
2022-09-28T11:34:18.479Z,950.93
2022-09-28T11:35:18.726Z,950.90
2022-09-28T11:36:18.912Z,950.92
2022-09-28T11:37:19.213Z,950.96
2022-09-28T11:38:19.527Z,950.99
2022-09-28T11:39:24.567Z,950.98
2022-09-28T11:40:20.187Z,950.97
2022-09-28T11:41:20.316Z,951.02
2022-09-28T11:42:20.625Z,951.00
2022-09-28T11:43:20.938Z,951.00
2022-09-28T11:44:21.245Z,951.01
2022-09-28T11:45:21.587Z,951.04
2022-09-28T11:46:21.875Z,951.01
2022-09-28T11:47:22.109Z,951.02
2022-09-28T11:48:22.395Z,950.95
2022-09-28T11:49:22.711Z,950.94
2022-09-28T11:50:24.616Z,950.91
2022-09-28T11:51:23.337Z,950.97
2022-09-28T11:52:23.565Z,950.90
2022-09-28T11:53:23.852Z,950.90
2022-09-28T11:54:24.156Z,950.89
2022-09-28T11:55:24.480Z,950.88
2022-09-28T11:56:24.809Z,950.83
2022-09-28T11:57:25.015Z,950.84
2022-09-28T11:58:25.361Z,950.84
2022-09-28T11:59:25.654Z,950.87
2022-09-28T12:00:25.963Z,950.89
2022-09-28T12:01:26.288Z,950.86
2022-09-28T12:02:26.823Z,950.84
2022-09-28T12:03:27.080Z,950.90
2022-09-28T12:04:27.157Z,950.95
2022-09-28T12:05:27.467Z,950.86
2022-09-28T12:06:27.810Z,950.87
2022-09-28T12:07:28.002Z,950.85
2022-09-28T12:08:28.322Z,950.83
2022-09-28T12:09:28.615Z,950.86
2022-09-28T12:10:28.939Z,950.86
2022-09-28T12:11:29.308Z,950.88
2022-09-28T12:12:29.493Z,950.90
2022-09-28T12:13:29.784Z,950.93
2022-09-28T12:14:30.138Z,950.98
2022-09-28T12:15:38.190Z,951.03
2022-09-28T12:17:03.651Z,951.02
2022-09-28T12:17:32.017Z,951.06
2022-09-28T12:18:31.263Z,951.05
2022-09-28T12:19:31.562Z,951.08
2022-09-28T12:20:31.891Z,951.07
2022-09-28T12:21:32.238Z,951.11
2022-09-28T12:22:32.541Z,951.10
2022-09-28T12:23:32.855Z,951.04
2022-09-28T12:24:33.169Z,951.03
2022-09-28T12:25:33.462Z,951.00
2022-09-28T12:26:37.252Z,950.91
2022-09-28T12:27:34.045Z,950.95
2022-09-28T12:28:34.328Z,950.97
2022-09-28T12:29:34.632Z,951.02
2022-09-28T12:30:34.968Z,950.99
2022-09-28T12:31:35.188Z,950.97
2022-09-28T12:32:35.521Z,951.00
2022-09-28T12:33:35.826Z,951.00
2022-09-28T12:34:36.161Z,950.97
2022-09-28T12:35:36.351Z,950.95
2022-09-28T12:36:36.666Z,950.99
2022-09-28T12:37:37.010Z,950.96
2022-09-28T12:38:37.338Z,950.92
2022-09-28T12:39:56.524Z,950.81
2022-09-28T12:40:39.000Z,950.79
2022-09-28T12:41:38.274Z,950.84
2022-09-28T12:42:38.573Z,950.84
2022-09-28T12:43:38.897Z,950.84
2022-09-28T12:44:39.231Z,950.89
2022-09-28T12:46:06.767Z,950.88
2022-09-28T12:46:41.789Z,950.87
2022-09-28T12:47:40.102Z,950.82
2022-09-28T12:48:40.443Z,950.81
2022-09-28T12:50:36.346Z,950.82
2022-09-28T12:50:48.638Z,950.82
2022-09-28T12:51:42.227Z,950.81
2022-09-28T12:53:41.797Z,950.81
2022-09-28T12:54:42.132Z,950.87
2022-09-28T12:55:42.470Z,950.84
2022-09-28T12:56:42.763Z,950.86
2022-09-28T12:57:43.061Z,950.85
2022-09-28T12:58:43.387Z,950.87
2022-09-28T12:59:43.695Z,950.85
2022-09-28T13:00:44.033Z,950.82
2022-09-28T13:01:44.400Z,950.81
2022-09-28T13:02:44.652Z,950.83
2022-09-28T13:03:44.834Z,950.81
2022-09-28T13:04:45.141Z,950.84
2022-09-28T13:05:45.445Z,950.83
2022-09-28T13:06:45.779Z,950.87
2022-09-28T13:07:46.103Z,950.86
2022-09-28T13:08:46.396Z,950.90
2022-09-28T13:09:46.696Z,950.95
2022-09-28T13:10:46.928Z,950.94
2022-09-28T13:11:47.252Z,950.94
2022-09-28T13:12:47.560Z,950.94
2022-09-28T13:13:47.844Z,950.96
2022-09-28T13:14:48.117Z,951.02
2022-09-28T13:15:48.460Z,951.01
2022-09-28T13:16:48.715Z,950.99
2022-09-28T13:17:49.022Z,950.94
2022-09-28T13:18:49.309Z,950.98
2022-09-28T13:19:49.620Z,950.94
2022-09-28T13:20:49.879Z,950.90
2022-09-28T13:21:50.202Z,950.90
2022-09-28T13:22:50.501Z,950.89
2022-09-28T13:23:50.800Z,950.91
2022-09-28T13:24:51.127Z,950.93
2022-09-28T13:25:51.427Z,950.89
2022-09-28T13:26:52.706Z,950.94
2022-09-28T13:27:51.944Z,950.94
2022-09-28T13:28:52.242Z,950.96
2022-09-28T13:29:52.570Z,950.97
2022-09-28T13:30:52.939Z,951.03
2022-09-28T13:31:53.143Z,951.02
2022-09-28T13:32:53.431Z,951.06
2022-09-28T13:33:53.726Z,951.01
2022-09-28T13:34:54.042Z,951.05
2022-09-28T13:35:54.361Z,951.10
2022-09-28T13:36:54.665Z,951.05
2022-09-28T13:37:54.994Z,951.15
2022-09-28T13:38:55.288Z,951.10
2022-09-28T13:39:55.592Z,951.15
2022-09-28T13:40:55.963Z,951.15
2022-09-28T13:41:56.146Z,951.17
2022-09-28T13:42:56.466Z,951.17
2022-09-28T13:43:56.771Z,951.14
2022-09-28T13:44:57.069Z,951.11
2022-09-28T13:45:57.418Z,951.09
2022-09-28T13:46:57.630Z,951.07
2022-09-28T13:47:57.969Z,951.12
2022-09-28T13:48:58.269Z,951.14
2022-09-28T13:49:58.605Z,951.11
2022-09-28T13:50:58.805Z,951.08
2022-09-28T13:51:59.083Z,951.11
2022-09-28T13:52:59.413Z,951.13
2022-09-28T13:53:59.700Z,951.10
2022-09-28T13:54:59.999Z,951.12
2022-09-28T13:56:00.297Z,951.09
2022-09-28T13:57:00.581Z,951.06
2022-09-28T13:58:00.915Z,951.06
2022-09-28T13:59:01.193Z,951.04
2022-09-28T14:00:01.516Z,951.05
2022-09-28T14:01:01.815Z,951.08
2022-09-28T14:02:06.567Z,951.04
2022-09-28T14:03:02.471Z,951.00
2022-09-28T14:04:02.686Z,951.00
2022-09-28T14:05:02.964Z,951.03
2022-09-28T14:06:03.301Z,951.03
2022-09-28T14:07:03.537Z,951.01
2022-09-28T14:08:03.870Z,950.99
2022-09-28T14:09:04.164Z,950.98
2022-09-28T14:10:04.443Z,951.00
2022-09-28T14:11:04.741Z,951.03
2022-09-28T14:12:05.045Z,951.07
2022-09-28T14:13:07.986Z,951.07
2022-09-28T14:14:05.605Z,951.07
2022-09-28T14:15:05.895Z,951.09
2022-09-28T14:16:06.309Z,951.04
2022-09-28T14:17:06.546Z,951.00
2022-09-28T14:18:06.845Z,950.99
2022-09-28T14:19:07.124Z,950.98
2022-09-28T14:20:07.402Z,950.99
2022-09-28T14:21:07.681Z,950.96
2022-09-28T14:22:07.999Z,950.96
2022-09-28T14:23:08.304Z,950.99
2022-09-28T14:24:08.575Z,950.99
2022-09-28T14:25:08.850Z,951.01
2022-09-28T14:26:09.123Z,951.00
2022-09-28T14:27:09.456Z,951.04
2022-09-28T14:28:09.755Z,951.00
2022-09-28T14:29:10.289Z,951.02
2022-09-28T14:30:10.384Z,951.04
2022-09-28T14:31:10.642Z,951.08
2022-09-28T14:32:10.876Z,951.06
2022-09-28T14:33:11.183Z,951.11
2022-09-28T14:34:11.507Z,951.10
2022-09-28T14:35:14.389Z,951.14
2022-09-28T14:36:13.071Z,951.17
2022-09-28T14:37:12.301Z,951.17